sensor_id;sensor_type;location;lat;lon;timestamp;temperature;humidity
67358;HTU21D;54240;51.096;5.878;2023-05-23T00:01:47;16.31;115.54
67358;HTU21D;54240;51.096;5.878;2023-05-23T00:04:14;16.17;118.99
67358;HTU21D;54240;51.096;5.878;2023-05-23T00:06:43;16.08;118.99
67358;HTU21D;54240;51.096;5.878;2023-05-23T00:09:18;16.02;118.99
67358;HTU21D;54240;51.096;5.878;2023-05-23T00:11:44;15.75;118.99
67358;HTU21D;54240;51.096;5.878;2023-05-23T00:14:11;15.70;118.99
67358;HTU21D;54240;51.096;5.878;2023-05-23T00:16:48;15.63;118.99
67358;HTU21D;54240;51.096;5.878;2023-05-23T00:19:15;15.67;118.99
67358;HTU21D;54240;51.096;5.878;2023-05-23T00:21:47;15.44;118.99
67358;HTU21D;54240;51.096;5.878;2023-05-23T00:24:14;15.49;118.99
67358;HTU21D;54240;51.096;5.878;2023-05-23T00:26:44;15.47;118.99
67358;HTU21D;54240;51.096;5.878;2023-05-23T00:29:11;15.42;118.99
67358;HTU21D;54240;51.096;5.878;2023-05-23T00:31:46;15.47;118.99
67358;HTU21D;54240;51.096;5.878;2023-05-23T00:34:14;15.40;118.99
67358;HTU21D;54240;51.096;5.878;2023-05-23T00:36:42;15.54;118.99
67358;HTU21D;54240;51.096;5.878;2023-05-23T00:39:13;15.52;118.99
67358;HTU21D;54240;51.096;5.878;2023-05-23T00:41:48;15.58;118.99
67358;HTU21D;54240;51.096;5.878;2023-05-23T00:44:14;15.51;118.99
67358;HTU21D;54240;51.096;5.878;2023-05-23T00:46:44;15.65;118.99
67358;HTU21D;54240;51.096;5.878;2023-05-23T00:49:12;15.61;118.99
67358;HTU21D;54240;51.096;5.878;2023-05-23T00:51:39;15.52;118.99
67358;HTU21D;54240;51.096;5.878;2023-05-23T00:54:08;15.19;118.99
67358;HTU21D;54240;51.096;5.878;2023-05-23T00:56:35;15.31;118.99
67358;HTU21D;54240;51.096;5.878;2023-05-23T00:59:01;15.41;118.99
67358;HTU21D;54240;51.096;5.878;2023-05-23T01:01:27;15.51;118.99
67358;HTU21D;54240;51.096;5.878;2023-05-23T01:03:53;15.48;118.99
67358;HTU21D;54240;51.096;5.878;2023-05-23T01:06:23;15.41;118.99
67358;HTU21D;54240;51.096;5.878;2023-05-23T01:08:49;15.31;118.99
67358;HTU21D;54240;51.096;5.878;2023-05-23T01:11:33;15.31;118.99
67358;HTU21D;54240;51.096;5.878;2023-05-23T01:14:09;15.48;118.99
67358;HTU21D;54240;51.096;5.878;2023-05-23T01:17:06;15.43;118.99
67358;HTU21D;54240;51.096;5.878;2023-05-23T01:28:20;15.34;118.99
67358;HTU21D;54240;51.096;5.878;2023-05-23T01:30:51;15.43;118.99
67358;HTU21D;54240;51.096;5.878;2023-05-23T01:33:19;15.48;118.99
67358;HTU21D;54240;51.096;5.878;2023-05-23T01:35:47;15.56;118.99
67358;HTU21D;54240;51.096;5.878;2023-05-23T01:38:14;15.56;118.99
67358;HTU21D;54240;51.096;5.878;2023-05-23T01:40:39;15.56;109.39
67358;HTU21D;54240;51.096;5.878;2023-05-23T01:43:09;15.49;104.58
67358;HTU21D;54240;51.096;5.878;2023-05-23T01:45:36;15.62;83.31
67358;HTU21D;54240;51.096;5.878;2023-05-23T01:48:03;15.58;63.19
67358;HTU21D;54240;51.096;5.878;2023-05-23T01:50:32;15.63;29.23
67358;HTU21D;54240;51.096;5.878;2023-05-23T01:52:59;15.67;40.06
67358;HTU21D;54240;51.096;5.878;2023-05-23T01:55:27;15.58;15.09
67358;HTU21D;54240;51.096;5.878;2023-05-23T01:57:54;15.69;-6.00
67358;HTU21D;54240;51.096;5.878;2023-05-23T02:00:27;15.85;-5.72
67358;HTU21D;54240;51.096;5.878;2023-05-23T02:02:53;15.77;-6.00
67358;HTU21D;54240;51.096;5.878;2023-05-23T02:05:19;15.73;13.32
67358;HTU21D;54240;51.096;5.878;2023-05-23T02:07:45;15.71;45.25
67358;HTU21D;54240;51.096;5.878;2023-05-23T02:10:11;15.68;47.69
67358;HTU21D;54240;51.096;5.878;2023-05-23T02:12:37;15.67;47.26
67358;HTU21D;54240;51.096;5.878;2023-05-23T02:15:04;15.73;55.90
67358;HTU21D;54240;51.096;5.878;2023-05-23T02:17:30;15.83;42.19
67358;HTU21D;54240;51.096;5.878;2023-05-23T02:19:57;15.67;77.80
67358;HTU21D;54240;51.096;5.878;2023-05-23T02:22:23;15.75;54.82
67358;HTU21D;54240;51.096;5.878;2023-05-23T02:24:50;15.66;75.19
67358;HTU21D;54240;51.096;5.878;2023-05-23T02:27:17;15.57;80.65
67358;HTU21D;54240;51.096;5.878;2023-05-23T02:29:43;15.68;67.53
67358;HTU21D;54240;51.096;5.878;2023-05-23T02:32:10;15.66;80.60
67358;HTU21D;54240;51.096;5.878;2023-05-23T02:34:37;15.75;73.44
67358;HTU21D;54240;51.096;5.878;2023-05-23T02:37:06;15.73;77.34
67358;HTU21D;54240;51.096;5.878;2023-05-23T02:39:34;15.76;65.85
67358;HTU21D;54240;51.096;5.878;2023-05-23T02:42:01;15.77;72.09
67358;HTU21D;54240;51.096;5.878;2023-05-23T02:44:28;15.74;68.89
67358;HTU21D;54240;51.096;5.878;2023-05-23T02:46:56;15.70;77.49
67358;HTU21D;54240;51.096;5.878;2023-05-23T02:49:22;15.72;73.27
67358;HTU21D;54240;51.096;5.878;2023-05-23T02:51:50;15.75;61.29
67358;HTU21D;54240;51.096;5.878;2023-05-23T02:54:16;15.77;59.94
67358;HTU21D;54240;51.096;5.878;2023-05-23T02:56:44;15.70;64.04
67358;HTU21D;54240;51.096;5.878;2023-05-23T02:59:11;15.70;48.84
67358;HTU21D;54240;51.096;5.878;2023-05-23T03:01:38;15.72;45.02
67358;HTU21D;54240;51.096;5.878;2023-05-23T03:04:04;15.49;72.53
67358;HTU21D;54240;51.096;5.878;2023-05-23T03:06:30;15.59;59.48
67358;HTU21D;54240;51.096;5.878;2023-05-23T03:09:00;15.57;51.82
67358;HTU21D;54240;51.096;5.878;2023-05-23T03:11:26;15.61;38.88
67358;HTU21D;54240;51.096;5.878;2023-05-23T03:13:52;15.52;59.67
67358;HTU21D;54240;51.096;5.878;2023-05-23T03:16:17;15.48;53.59
67358;HTU21D;54240;51.096;5.878;2023-05-23T03:18:44;15.62;39.68
67358;HTU21D;54240;51.096;5.878;2023-05-23T03:21:09;15.45;60.86
67358;HTU21D;54240;51.096;5.878;2023-05-23T03:23:36;15.55;41.96
67358;HTU21D;54240;51.096;5.878;2023-05-23T03:26:02;15.46;47.41
67358;HTU21D;54240;51.096;5.878;2023-05-23T03:28:30;15.42;51.81
67358;HTU21D;54240;51.096;5.878;2023-05-23T03:30:57;15.44;36.79
67358;HTU21D;54240;51.096;5.878;2023-05-23T03:33:23;15.40;14.07
67358;HTU21D;54240;51.096;5.878;2023-05-23T03:35:49;15.56;-5.63
67358;HTU21D;54240;51.096;5.878;2023-05-23T03:38:16;15.55;4.19
67358;HTU21D;54240;51.096;5.878;2023-05-23T03:40:45;15.58;4.63
67358;HTU21D;54240;51.096;5.878;2023-05-23T03:43:12;15.63;-3.27
67358;HTU21D;54240;51.096;5.878;2023-05-23T03:45:42;15.59;10.01
67358;HTU21D;54240;51.096;5.878;2023-05-23T03:48:12;15.61;5.39
67358;HTU21D;54240;51.096;5.878;2023-05-23T03:50:39;15.70;-1.81
67358;HTU21D;54240;51.096;5.878;2023-05-23T03:53:05;15.70;-2.47
67358;HTU21D;54240;51.096;5.878;2023-05-23T03:55:31;15.67;-3.50
67358;HTU21D;54240;51.096;5.878;2023-05-23T03:57:59;15.66;-1.79
67358;HTU21D;54240;51.096;5.878;2023-05-23T04:00:26;15.68;-6.00
67358;HTU21D;54240;51.096;5.878;2023-05-23T04:02:52;15.65;-6.00
67358;HTU21D;54240;51.096;5.878;2023-05-23T04:05:21;15.51;14.06
67358;HTU21D;54240;51.096;5.878;2023-05-23T04:07:48;15.51;8.44
67358;HTU21D;54240;51.096;5.878;2023-05-23T04:10:14;15.45;27.84
67358;HTU21D;54240;51.096;5.878;2023-05-23T04:12:44;15.54;5.63
67358;HTU21D;54240;51.096;5.878;2023-05-23T04:15:14;15.49;15.30
67358;HTU21D;54240;51.096;5.878;2023-05-23T04:17:53;15.33;40.97
67358;HTU21D;54240;51.096;5.878;2023-05-23T04:20:20;15.43;27.70
67358;HTU21D;54240;51.096;5.878;2023-05-23T04:22:45;15.33;47.61
67358;HTU21D;54240;51.096;5.878;2023-05-23T04:25:11;15.43;27.71
67358;HTU21D;54240;51.096;5.878;2023-05-23T04:27:44;15.53;21.36
67358;HTU21D;54240;51.096;5.878;2023-05-23T04:30:12;15.48;22.33
67358;HTU21D;54240;51.096;5.878;2023-05-23T04:32:42;15.40;31.82
67358;HTU21D;54240;51.096;5.878;2023-05-23T04:35:09;15.41;22.50
67358;HTU21D;54240;51.096;5.878;2023-05-23T04:37:39;15.43;15.59
67358;HTU21D;54240;51.096;5.878;2023-05-23T04:40:05;15.28;46.12
67358;HTU21D;54240;51.096;5.878;2023-05-23T04:42:51;15.22;52.05
67358;HTU21D;54240;51.096;5.878;2023-05-23T04:45:29;15.31;43.19
67358;HTU21D;54240;51.096;5.878;2023-05-23T04:47:59;15.14;80.91
67358;HTU21D;54240;51.096;5.878;2023-05-23T04:50:38;15.16;61.08
67358;HTU21D;54240;51.096;5.878;2023-05-23T04:53:05;15.27;47.02
67358;HTU21D;54240;51.096;5.878;2023-05-23T04:55:31;15.37;41.52
67358;HTU21D;54240;51.096;5.878;2023-05-23T04:57:58;15.24;78.40
67358;HTU21D;54240;51.096;5.878;2023-05-23T05:00:24;15.17;74.28
67358;HTU21D;54240;51.096;5.878;2023-05-23T05:02:51;15.14;96.91
67358;HTU21D;54240;51.096;5.878;2023-05-23T05:05:17;15.09;81.22
67358;HTU21D;54240;51.096;5.878;2023-05-23T05:07:43;15.22;79.34
67358;HTU21D;54240;51.096;5.878;2023-05-23T05:10:09;15.34;50.23
67358;HTU21D;54240;51.096;5.878;2023-05-23T05:12:46;15.07;103.05
67358;HTU21D;54240;51.096;5.878;2023-05-23T05:15:18;15.22;59.80
67358;HTU21D;54240;51.096;5.878;2023-05-23T05:17:47;15.46;32.05
67358;HTU21D;54240;51.096;5.878;2023-05-23T05:20:16;15.42;21.50
67358;HTU21D;54240;51.096;5.878;2023-05-23T05:22:42;15.57;9.49
67358;HTU21D;54240;51.096;5.878;2023-05-23T05:25:12;15.54;10.57
67358;HTU21D;54240;51.096;5.878;2023-05-23T05:27:38;15.54;11.54
67358;HTU21D;54240;51.096;5.878;2023-05-23T05:30:08;15.52;3.06
67358;HTU21D;54240;51.096;5.878;2023-05-23T05:32:49;15.55;-4.31
67358;HTU21D;54240;51.096;5.878;2023-05-23T05:35:17;15.62;-6.00
67358;HTU21D;54240;51.096;5.878;2023-05-23T05:37:44;15.60;-6.00
67358;HTU21D;54240;51.096;5.878;2023-05-23T05:40:11;15.66;-6.00
67358;HTU21D;54240;51.096;5.878;2023-05-23T05:42:43;15.69;-6.00
67358;HTU21D;54240;51.096;5.878;2023-05-23T05:45:10;15.73;-6.00
67358;HTU21D;54240;51.096;5.878;2023-05-23T05:47:37;15.71;-6.00
67358;HTU21D;54240;51.096;5.878;2023-05-23T05:50:07;15.65;-6.00
67358;HTU21D;54240;51.096;5.878;2023-05-23T05:52:35;15.58;11.78
67358;HTU21D;54240;51.096;5.878;2023-05-23T05:55:07;15.60;-1.93
67358;HTU21D;54240;51.096;5.878;2023-05-23T05:57:34;15.54;10.37
67358;HTU21D;54240;51.096;5.878;2023-05-23T06:00:09;15.45;22.79
67358;HTU21D;54240;51.096;5.878;2023-05-23T06:02:45;15.42;19.47
67358;HTU21D;54240;51.096;5.878;2023-05-23T06:05:40;15.45;21.16
67358;HTU21D;54240;51.096;5.878;2023-05-23T06:08:06;15.44;31.93
67358;HTU21D;54240;51.096;5.878;2023-05-23T06:10:33;14.86;118.99
67358;HTU21D;54240;51.096;5.878;2023-05-23T06:12:59;15.12;69.40
67358;HTU21D;54240;51.096;5.878;2023-05-23T06:15:25;15.18;72.88
67358;HTU21D;54240;51.096;5.878;2023-05-23T06:17:52;15.04;112.06
67358;HTU21D;54240;51.096;5.878;2023-05-23T06:20:18;15.10;96.08
67358;HTU21D;54240;51.096;5.878;2023-05-23T06:22:46;15.19;68.37
67358;HTU21D;54240;51.096;5.878;2023-05-23T06:25:12;15.37;41.83
67358;HTU21D;54240;51.096;5.878;2023-05-23T06:27:37;15.46;31.34
67358;HTU21D;54240;51.096;5.878;2023-05-23T06:30:04;15.54;29.40
67358;HTU21D;54240;51.096;5.878;2023-05-23T06:32:31;15.65;10.14
67358;HTU21D;54240;51.096;5.878;2023-05-23T06:34:58;15.62;18.89
67358;HTU21D;54240;51.096;5.878;2023-05-23T06:37:24;15.62;10.69
67358;HTU21D;54240;51.096;5.878;2023-05-23T06:39:50;15.54;20.34
67358;HTU21D;54240;51.096;5.878;2023-05-23T06:42:16;15.39;42.48
67358;HTU21D;54240;51.096;5.878;2023-05-23T06:44:55;15.36;44.65
67358;HTU21D;54240;51.096;5.878;2023-05-23T06:47:22;15.45;32.45
67358;HTU21D;54240;51.096;5.878;2023-05-23T06:49:48;15.60;15.03
67358;HTU21D;54240;51.096;5.878;2023-05-23T06:52:14;15.70;4.09
67358;HTU21D;54240;51.096;5.878;2023-05-23T06:54:42;15.51;28.18
67358;HTU21D;54240;51.096;5.878;2023-05-23T06:57:08;15.61;9.72
67358;HTU21D;54240;51.096;5.878;2023-05-23T06:59:34;15.58;12.55
67358;HTU21D;54240;51.096;5.878;2023-05-23T07:02:01;15.36;40.16
67358;HTU21D;54240;51.096;5.878;2023-05-23T07:04:27;15.66;7.24
67358;HTU21D;54240;51.096;5.878;2023-05-23T07:06:58;15.76;1.74
67358;HTU21D;54240;51.096;5.878;2023-05-23T07:09:24;15.60;14.39
67358;HTU21D;54240;51.096;5.878;2023-05-23T07:11:57;15.39;29.45
67358;HTU21D;54240;51.096;5.878;2023-05-23T07:14:26;15.37;20.28
67358;HTU21D;54240;51.096;5.878;2023-05-23T07:16:52;15.19;56.03
67358;HTU21D;54240;51.096;5.878;2023-05-23T07:19:19;14.70;73.03
67358;HTU21D;54240;51.096;5.878;2023-05-23T07:21:49;14.88;41.94
67358;HTU21D;54240;51.096;5.878;2023-05-23T07:24:17;14.95;47.99
67358;HTU21D;54240;51.096;5.878;2023-05-23T07:26:42;14.80;52.72
67358;HTU21D;54240;51.096;5.878;2023-05-23T07:29:08;14.78;40.72
67358;HTU21D;54240;51.096;5.878;2023-05-23T07:31:39;14.69;43.51
67358;HTU21D;54240;51.096;5.878;2023-05-23T07:34:06;14.81;10.94
67358;HTU21D;54240;51.096;5.878;2023-05-23T07:36:50;14.58;44.91
67358;HTU21D;54240;51.096;5.878;2023-05-23T07:39:17;14.66;27.34
67358;HTU21D;54240;51.096;5.878;2023-05-23T07:41:51;14.60;28.58
67358;HTU21D;54240;51.096;5.878;2023-05-23T07:44:18;14.45;34.02
67358;HTU21D;54240;51.096;5.878;2023-05-23T07:46:45;14.56;37.41
67358;HTU21D;54240;51.096;5.878;2023-05-23T07:49:11;14.72;14.32
67358;HTU21D;54240;51.096;5.878;2023-05-23T07:51:38;15.04;-6.00
67358;HTU21D;54240;51.096;5.878;2023-05-23T07:54:05;15.24;-6.00
67358;HTU21D;54240;51.096;5.878;2023-05-23T07:56:31;14.89;-6.00
67358;HTU21D;54240;51.096;5.878;2023-05-23T07:58:58;15.03;-6.00
67358;HTU21D;54240;51.096;5.878;2023-05-23T08:01:27;15.10;-6.00
67358;HTU21D;54240;51.096;5.878;2023-05-23T08:04:02;15.04;-6.00
67358;HTU21D;54240;51.096;5.878;2023-05-23T08:06:33;15.12;-6.00
67358;HTU21D;54240;51.096;5.878;2023-05-23T08:09:03;15.30;-6.00
67358;HTU21D;54240;51.096;5.878;2023-05-23T08:11:32;15.46;-6.00
67358;HTU21D;54240;51.096;5.878;2023-05-23T08:13:59;15.29;-6.00
67358;HTU21D;54240;51.096;5.878;2023-05-23T08:16:38;14.67;-6.00
67358;HTU21D;54240;51.096;5.878;2023-05-23T08:19:09;14.57;-6.00
67358;HTU21D;54240;51.096;5.878;2023-05-23T08:21:39;14.29;-6.00
67358;HTU21D;54240;51.096;5.878;2023-05-23T08:24:07;14.77;-6.00
67358;HTU21D;54240;51.096;5.878;2023-05-23T08:26:34;14.80;-6.00
67358;HTU21D;54240;51.096;5.878;2023-05-23T08:29:04;14.95;-6.00
67358;HTU21D;54240;51.096;5.878;2023-05-23T08:31:31;15.02;-6.00
67358;HTU21D;54240;51.096;5.878;2023-05-23T08:33:58;14.78;-6.00
67358;HTU21D;54240;51.096;5.878;2023-05-23T08:36:24;14.58;-6.00
67358;HTU21D;54240;51.096;5.878;2023-05-23T08:38:50;14.50;-6.00
67358;HTU21D;54240;51.096;5.878;2023-05-23T08:41:29;14.42;-6.00
67358;HTU21D;54240;51.096;5.878;2023-05-23T08:44:02;14.47;-6.00
67358;HTU21D;54240;51.096;5.878;2023-05-23T08:46:33;14.72;-6.00
67358;HTU21D;54240;51.096;5.878;2023-05-23T08:49:04;14.64;-6.00
67358;HTU21D;54240;51.096;5.878;2023-05-23T08:51:35;14.41;-6.00
67358;HTU21D;54240;51.096;5.878;2023-05-23T08:54:08;14.64;-6.00
67358;HTU21D;54240;51.096;5.878;2023-05-23T08:56:35;14.53;-6.00
67358;HTU21D;54240;51.096;5.878;2023-05-23T08:59:03;14.85;-6.00
67358;HTU21D;54240;51.096;5.878;2023-05-23T09:01:31;14.91;-6.00
67358;HTU21D;54240;51.096;5.878;2023-05-23T09:04:01;15.19;-6.00
67358;HTU21D;54240;51.096;5.878;2023-05-23T09:06:38;15.38;-6.00
67358;HTU21D;54240;51.096;5.878;2023-05-23T09:09:05;15.39;-6.00
67358;HTU21D;54240;51.096;5.878;2023-05-23T09:11:32;15.45;-6.00
67358;HTU21D;54240;51.096;5.878;2023-05-23T09:14:00;15.88;-6.00
67358;HTU21D;54240;51.096;5.878;2023-05-23T09:16:33;16.14;-6.00
67358;HTU21D;54240;51.096;5.878;2023-05-23T09:19:12;16.18;-6.00
67358;HTU21D;54240;51.096;5.878;2023-05-23T09:21:43;16.00;-6.00
67358;HTU21D;54240;51.096;5.878;2023-05-23T09:24:18;16.26;-6.00
67358;HTU21D;54240;51.096;5.878;2023-05-23T09:26:48;16.39;-6.00
67358;HTU21D;54240;51.096;5.878;2023-05-23T09:29:19;16.70;-6.00
67358;HTU21D;54240;51.096;5.878;2023-05-23T09:31:46;17.18;-6.00
67358;HTU21D;54240;51.096;5.878;2023-05-23T09:34:12;17.15;-6.00
67358;HTU21D;54240;51.096;5.878;2023-05-23T09:36:40;17.40;-6.00
67358;HTU21D;54240;51.096;5.878;2023-05-23T09:39:10;17.45;-6.00
67358;HTU21D;54240;51.096;5.878;2023-05-23T09:41:40;17.93;-6.00
67358;HTU21D;54240;51.096;5.878;2023-05-23T09:44:09;18.14;-6.00
67358;HTU21D;54240;51.096;5.878;2023-05-23T09:46:36;17.89;-6.00
67358;HTU21D;54240;51.096;5.878;2023-05-23T09:49:15;17.90;-6.00
67358;HTU21D;54240;51.096;5.878;2023-05-23T09:51:57;17.52;-6.00
67358;HTU21D;54240;51.096;5.878;2023-05-23T09:54:24;17.34;-6.00
67358;HTU21D;54240;51.096;5.878;2023-05-23T09:56:52;17.43;-6.00
67358;HTU21D;54240;51.096;5.878;2023-05-23T09:59:20;17.40;-6.00
67358;HTU21D;54240;51.096;5.878;2023-05-23T10:01:50;17.41;-6.00
67358;HTU21D;54240;51.096;5.878;2023-05-23T10:04:21;17.44;-6.00
67358;HTU21D;54240;51.096;5.878;2023-05-23T10:06:55;17.22;-6.00
67358;HTU21D;54240;51.096;5.878;2023-05-23T10:09:26;17.29;-6.00
67358;HTU21D;54240;51.096;5.878;2023-05-23T10:15:04;16.93;-6.00
67358;HTU21D;54240;51.096;5.878;2023-05-23T10:20:15;17.06;-6.00
67358;HTU21D;54240;51.096;5.878;2023-05-23T10:22:43;17.10;-6.00
67358;HTU21D;54240;51.096;5.878;2023-05-23T10:25:10;17.11;-6.00
67358;HTU21D;54240;51.096;5.878;2023-05-23T10:27:38;17.04;-6.00
67358;HTU21D;54240;51.096;5.878;2023-05-23T10:30:08;17.00;-6.00
67358;HTU21D;54240;51.096;5.878;2023-05-23T10:32:37;17.09;-6.00
67358;HTU21D;54240;51.096;5.878;2023-05-23T10:35:24;17.31;-6.00
67358;HTU21D;54240;51.096;5.878;2023-05-23T10:41:09;17.33;-6.00
67358;HTU21D;54240;51.096;5.878;2023-05-23T10:43:50;17.29;-6.00
67358;HTU21D;54240;51.096;5.878;2023-05-23T10:46:20;17.22;-6.00
67358;HTU21D;54240;51.096;5.878;2023-05-23T10:48:46;17.74;-6.00
67358;HTU21D;54240;51.096;5.878;2023-05-23T10:51:14;18.19;-6.00
67358;HTU21D;54240;51.096;5.878;2023-05-23T10:53:43;18.36;-6.00
67358;HTU21D;54240;51.096;5.878;2023-05-23T10:56:21;18.56;-6.00
67358;HTU21D;54240;51.096;5.878;2023-05-23T10:58:55;17.96;-6.00
67358;HTU21D;54240;51.096;5.878;2023-05-23T11:01:21;17.80;-6.00
67358;HTU21D;54240;51.096;5.878;2023-05-23T11:03:51;17.70;-6.00
67358;HTU21D;54240;51.096;5.878;2023-05-23T11:06:42;17.91;-6.00
67358;HTU21D;54240;51.096;5.878;2023-05-23T11:09:17;17.60;-6.00
67358;HTU21D;54240;51.096;5.878;2023-05-23T11:11:54;17.63;-6.00
67358;HTU21D;54240;51.096;5.878;2023-05-23T11:17:22;18.03;-6.00
67358;HTU21D;54240;51.096;5.878;2023-05-23T11:20:04;17.46;-6.00
67358;HTU21D;54240;51.096;5.878;2023-05-23T11:22:33;17.51;-6.00
67358;HTU21D;54240;51.096;5.878;2023-05-23T11:25:08;17.79;-6.00
67358;HTU21D;54240;51.096;5.878;2023-05-23T11:27:39;17.68;-6.00
67358;HTU21D;54240;51.096;5.878;2023-05-23T11:30:16;17.94;-6.00
67358;HTU21D;54240;51.096;5.878;2023-05-23T11:32:50;17.80;-6.00
67358;HTU21D;54240;51.096;5.878;2023-05-23T11:35:17;17.72;-6.00
67358;HTU21D;54240;51.096;5.878;2023-05-23T11:37:44;17.75;-6.00
67358;HTU21D;54240;51.096;5.878;2023-05-23T11:40:37;17.92;-6.00
67358;HTU21D;54240;51.096;5.878;2023-05-23T11:43:09;17.85;-6.00
67358;HTU21D;54240;51.096;5.878;2023-05-23T11:45:36;17.99;-6.00
67358;HTU21D;54240;51.096;5.878;2023-05-23T11:48:08;18.12;-6.00
67358;HTU21D;54240;51.096;5.878;2023-05-23T11:50:46;18.35;-6.00
67358;HTU21D;54240;51.096;5.878;2023-05-23T11:53:14;18.34;-6.00
67358;HTU21D;54240;51.096;5.878;2023-05-23T11:55:57;18.36;-6.00
67358;HTU21D;54240;51.096;5.878;2023-05-23T11:58:35;18.48;-6.00
67358;HTU21D;54240;51.096;5.878;2023-05-23T12:01:09;18.72;-6.00
67358;HTU21D;54240;51.096;5.878;2023-05-23T12:03:49;18.87;-6.00
67358;HTU21D;54240;51.096;5.878;2023-05-23T12:06:20;18.72;-6.00
67358;HTU21D;54240;51.096;5.878;2023-05-23T12:08:46;18.94;-6.00
67358;HTU21D;54240;51.096;5.878;2023-05-23T12:11:12;19.01;-6.00
67358;HTU21D;54240;51.096;5.878;2023-05-23T12:13:41;19.11;-6.00
67358;HTU21D;54240;51.096;5.878;2023-05-23T12:16:08;19.25;-6.00
67358;HTU21D;54240;51.096;5.878;2023-05-23T12:18:36;18.96;-6.00
67358;HTU21D;54240;51.096;5.878;2023-05-23T12:21:04;18.71;-6.00
67358;HTU21D;54240;51.096;5.878;2023-05-23T12:23:33;19.15;-6.00
67358;HTU21D;54240;51.096;5.878;2023-05-23T12:26:04;19.69;-6.00
67358;HTU21D;54240;51.096;5.878;2023-05-23T12:28:39;19.77;-6.00
67358;HTU21D;54240;51.096;5.878;2023-05-23T12:31:18;19.62;-6.00
67358;HTU21D;54240;51.096;5.878;2023-05-23T12:33:47;19.39;-6.00
67358;HTU21D;54240;51.096;5.878;2023-05-23T12:36:14;19.91;-6.00
67358;HTU21D;54240;51.096;5.878;2023-05-23T12:38:41;19.76;-6.00
67358;HTU21D;54240;51.096;5.878;2023-05-23T12:41:11;20.34;-6.00
67358;HTU21D;54240;51.096;5.878;2023-05-23T12:43:38;20.21;-6.00
67358;HTU21D;54240;51.096;5.878;2023-05-23T12:46:06;19.92;-6.00
67358;HTU21D;54240;51.096;5.878;2023-05-23T12:48:32;19.76;-6.00
67358;HTU21D;54240;51.096;5.878;2023-05-23T12:50:59;19.61;-6.00
67358;HTU21D;54240;51.096;5.878;2023-05-23T12:53:26;19.46;-6.00
67358;HTU21D;54240;51.096;5.878;2023-05-23T12:55:52;19.57;-6.00
67358;HTU21D;54240;51.096;5.878;2023-05-23T12:58:18;19.99;-6.00
67358;HTU21D;54240;51.096;5.878;2023-05-23T13:00:44;20.30;-6.00
67358;HTU21D;54240;51.096;5.878;2023-05-23T13:03:10;20.27;-6.00
67358;HTU21D;54240;51.096;5.878;2023-05-23T13:05:37;20.83;-6.00
67358;HTU21D;54240;51.096;5.878;2023-05-23T13:08:03;20.85;-6.00
67358;HTU21D;54240;51.096;5.878;2023-05-23T13:10:29;20.91;-6.00
67358;HTU21D;54240;51.096;5.878;2023-05-23T13:12:54;20.37;-6.00
67358;HTU21D;54240;51.096;5.878;2023-05-23T13:15:20;20.55;-6.00
67358;HTU21D;54240;51.096;5.878;2023-05-23T13:17:46;20.81;-6.00
67358;HTU21D;54240;51.096;5.878;2023-05-23T13:20:13;20.86;-6.00
67358;HTU21D;54240;51.096;5.878;2023-05-23T13:22:39;20.77;-6.00
67358;HTU21D;54240;51.096;5.878;2023-05-23T13:25:06;20.73;-6.00
67358;HTU21D;54240;51.096;5.878;2023-05-23T13:27:33;20.55;-6.00
67358;HTU21D;54240;51.096;5.878;2023-05-23T13:30:00;20.14;-6.00
67358;HTU21D;54240;51.096;5.878;2023-05-23T13:32:26;20.10;-6.00
67358;HTU21D;54240;51.096;5.878;2023-05-23T13:34:52;20.39;-6.00
67358;HTU21D;54240;51.096;5.878;2023-05-23T13:37:18;20.36;-6.00
67358;HTU21D;54240;51.096;5.878;2023-05-23T13:39:44;20.13;-6.00
67358;HTU21D;54240;51.096;5.878;2023-05-23T13:42:10;20.54;-6.00
67358;HTU21D;54240;51.096;5.878;2023-05-23T13:44:36;20.69;-6.00
67358;HTU21D;54240;51.096;5.878;2023-05-23T13:47:12;20.33;-6.00
67358;HTU21D;54240;51.096;5.878;2023-05-23T13:49:40;19.76;-6.00
67358;HTU21D;54240;51.096;5.878;2023-05-23T13:52:06;19.91;-6.00
67358;HTU21D;54240;51.096;5.878;2023-05-23T13:54:32;19.63;-6.00
67358;HTU21D;54240;51.096;5.878;2023-05-23T13:56:59;19.73;-6.00
67358;HTU21D;54240;51.096;5.878;2023-05-23T13:59:26;19.70;-6.00
67358;HTU21D;54240;51.096;5.878;2023-05-23T14:01:52;19.58;-6.00
67358;HTU21D;54240;51.096;5.878;2023-05-23T14:04:19;19.75;-6.00
67358;HTU21D;54240;51.096;5.878;2023-05-23T14:06:45;19.77;-6.00
67358;HTU21D;54240;51.096;5.878;2023-05-23T14:09:11;19.44;-6.00
67358;HTU21D;54240;51.096;5.878;2023-05-23T14:11:38;19.47;-6.00
67358;HTU21D;54240;51.096;5.878;2023-05-23T14:14:04;18.91;-6.00
67358;HTU21D;54240;51.096;5.878;2023-05-23T14:16:30;19.31;-6.00
67358;HTU21D;54240;51.096;5.878;2023-05-23T14:18:56;19.73;-6.00
67358;HTU21D;54240;51.096;5.878;2023-05-23T14:21:22;20.12;-6.00
67358;HTU21D;54240;51.096;5.878;2023-05-23T14:23:48;20.49;-6.00
67358;HTU21D;54240;51.096;5.878;2023-05-23T14:26:14;20.74;-6.00
67358;HTU21D;54240;51.096;5.878;2023-05-23T14:28:41;20.61;-6.00
67358;HTU21D;54240;51.096;5.878;2023-05-23T14:31:07;20.62;-6.00
67358;HTU21D;54240;51.096;5.878;2023-05-23T14:33:33;20.62;-6.00
67358;HTU21D;54240;51.096;5.878;2023-05-23T14:35:59;20.29;-6.00
67358;HTU21D;54240;51.096;5.878;2023-05-23T14:38:26;19.88;-6.00
67358;HTU21D;54240;51.096;5.878;2023-05-23T14:40:52;20.01;-6.00
67358;HTU21D;54240;51.096;5.878;2023-05-23T14:43:20;20.13;-6.00
67358;HTU21D;54240;51.096;5.878;2023-05-23T14:45:46;20.22;-6.00
67358;HTU21D;54240;51.096;5.878;2023-05-23T14:48:12;20.09;-6.00
67358;HTU21D;54240;51.096;5.878;2023-05-23T14:50:37;19.61;-6.00
67358;HTU21D;54240;51.096;5.878;2023-05-23T14:53:04;19.16;-6.00
67358;HTU21D;54240;51.096;5.878;2023-05-23T14:55:29;19.51;-6.00
67358;HTU21D;54240;51.096;5.878;2023-05-23T14:57:56;19.94;-6.00
67358;HTU21D;54240;51.096;5.878;2023-05-23T15:00:22;20.28;-6.00
67358;HTU21D;54240;51.096;5.878;2023-05-23T15:02:49;20.33;-6.00
67358;HTU21D;54240;51.096;5.878;2023-05-23T15:05:16;20.21;-6.00
67358;HTU21D;54240;51.096;5.878;2023-05-23T15:07:43;20.48;-6.00
67358;HTU21D;54240;51.096;5.878;2023-05-23T15:10:11;20.62;-6.00
67358;HTU21D;54240;51.096;5.878;2023-05-23T15:12:43;20.60;-6.00
67358;HTU21D;54240;51.096;5.878;2023-05-23T15:15:09;20.05;-6.00
67358;HTU21D;54240;51.096;5.878;2023-05-23T15:17:35;19.54;-6.00
67358;HTU21D;54240;51.096;5.878;2023-05-23T15:20:02;19.47;-6.00
67358;HTU21D;54240;51.096;5.878;2023-05-23T15:22:29;19.31;-6.00
67358;HTU21D;54240;51.096;5.878;2023-05-23T15:24:59;18.54;-6.00
67358;HTU21D;54240;51.096;5.878;2023-05-23T15:27:25;19.06;-6.00
67358;HTU21D;54240;51.096;5.878;2023-05-23T15:29:51;19.16;-6.00
67358;HTU21D;54240;51.096;5.878;2023-05-23T15:32:17;19.65;-6.00
67358;HTU21D;54240;51.096;5.878;2023-05-23T15:34:43;19.85;-6.00
67358;HTU21D;54240;51.096;5.878;2023-05-23T15:37:09;19.52;-6.00
67358;HTU21D;54240;51.096;5.878;2023-05-23T15:39:35;19.41;-6.00
67358;HTU21D;54240;51.096;5.878;2023-05-23T15:42:01;19.55;-6.00
67358;HTU21D;54240;51.096;5.878;2023-05-23T15:44:28;19.39;-6.00
67358;HTU21D;54240;51.096;5.878;2023-05-23T15:46:57;18.86;-6.00